Township of Washington, NJ

5:27 PM EST on December 22, 2014 (GMT -0500)
KNJEMERS3 | Change Station
CLOSE
Current Station
Personal Weather Station
Location: Emerson, NJ
Elevation: 82 ft
Nearby Weather Stations

Elev 82 ft 40.98 °N, 74.04 °W | Updated 1 second ago

Overcast
Overcast
41.1 °F
Feels Like 41 °F
N
0.0
Wind Variable Wind from NE
Gusts 3.0 mph

Today
High -- | Low -- °F
--% Chance of Precip.
Yesterday
High -- | Low -- °F
Precip. -- in
7:18 AM 4:31 PM
New Moon, 1% visible
Pressure 30.22 in
Visibility 4.0 miles
Clouds Overcast 900 ft
Windchill 41 °F
Dew Point 38 °F
Humidity 89%
Rainfall 0.00 in
Snow Depth Not available.
UV 0 out of 12
Pollen .10 out of 12
Air Quality Not available.
Flu Activity Not available.
METAR KTEB 222151Z 06005KT 4SM -RA BR OVC009 06/04 A3021 RMK AO2 SLP231 P0000 T00610039 $

More Conditions Fewer Conditions

Pressure 30.22 in
Visibility 4.0 miles
Clouds Overcast 900 ft
Windchill 41 °F
Dew Point 38 °F
Humidity 89%
Rainfall 0.00 in
Snow Depth Not available.
UV 0 out of 12
Pollen .10 out of 12
Air Quality Not available.
Flu Activity Not available.
METAR KTEB 222151Z 06005KT 4SM -RA BR OVC009 06/04 A3021 RMK AO2 SLP231 P0000 T00610039 $

More Conditions Fewer Conditions

10-Day Weather Forecast

Almanac

Astronomy

Dec. 22, 2014 Rise Set
Actual Time
Civil Twilight
Nautical Twilight
Astronomical Twilight
Moon
Length of Visible Light
Length of Day
Tomorrow will be .
, % of the Moon is Illuminated

Today's Extremes

State Highs State Lows

Community

WunderPhotos

Upload Photos

1,779,694 photos uploaded!

WunderBlogs® & News

Nearby

Air Quality

  Air Quality AQ Index Pollutant
Not available.

Snow Depth

Station Depth Elevation

Earthquake Activity

City Distance Mag. Time & Date
Minimum magnitude displayed is 2.5.

Coastal Water Temperatures

Place Temperature

Nearby Weather Stations